createdAt,value
2022-08-20T00:02:14.650Z,72.63
2022-08-20T00:04:44.258Z,72.70
2022-08-20T00:07:13.274Z,73.43
2022-08-20T00:09:41.698Z,73.67
2022-08-20T00:12:11.324Z,73.03
2022-08-20T00:14:39.961Z,72.95
2022-08-20T00:17:08.354Z,73.24
2022-08-20T00:19:36.578Z,74.36
2022-08-20T00:22:06.339Z,73.23
2022-08-20T00:24:34.944Z,73.24
2022-08-20T00:27:03.449Z,72.44
2022-08-20T00:29:31.674Z,72.60
2022-08-20T00:31:59.899Z,73.01
2022-08-20T00:34:29.388Z,71.50
2022-08-20T00:36:57.792Z,71.64
2022-08-20T00:39:27.474Z,71.87
2022-08-20T00:41:55.609Z,70.79
2022-08-20T00:44:24.538Z,71.06
2022-08-20T00:46:53.772Z,70.87
2022-08-20T00:49:24.998Z,70.94
2022-08-20T00:51:57.065Z,70.11
2022-08-20T00:54:28.757Z,69.53
2022-08-20T00:57:01.547Z,69.93
2022-08-20T00:59:31.729Z,69.93
2022-08-20T01:02:01.868Z,69.71
2022-08-20T01:04:33.445Z,70.79
2022-08-20T01:07:02.147Z,70.67
2022-08-20T01:09:49.553Z,70.76
2022-08-20T01:12:20.068Z,70.89
2022-08-20T01:14:48.707Z,71.83
2022-08-20T01:17:20.917Z,71.78
2022-08-20T01:19:51.550Z,71.10
2022-08-20T01:22:42.969Z,71.10
2022-08-20T01:25:18.549Z,71.35
2022-08-20T01:27:48.183Z,70.44
2022-08-20T01:30:29.198Z,70.49
2022-08-20T01:32:57.300Z,70.55
2022-08-20T01:35:26.066Z,70.04
2022-08-20T01:37:54.261Z,70.18
2022-08-20T01:40:30.838Z,70.23
2022-08-20T01:43:00.414Z,70.28
2022-08-20T01:45:30.360Z,69.84
2022-08-20T01:47:59.755Z,69.91
2022-08-20T01:50:30.362Z,70.70
2022-08-20T01:53:13.051Z,70.53
2022-08-20T01:55:41.332Z,70.22
2022-08-20T01:58:11.051Z,70.39
2022-08-20T02:00:39.377Z,69.11
2022-08-20T02:03:07.909Z,69.27
2022-08-20T02:05:36.272Z,69.52
2022-08-20T02:08:05.407Z,69.58
2022-08-20T02:10:34.478Z,68.81
2022-08-20T02:13:02.878Z,68.72
2022-08-20T02:15:35.163Z,68.00
2022-08-20T02:18:10.927Z,67.99
2022-08-20T02:20:39.987Z,68.25
2022-08-20T02:23:08.639Z,68.03
2022-08-20T02:25:38.821Z,68.22
2022-08-20T02:28:09.303Z,68.07
2022-08-20T02:30:42.112Z,68.54
2022-08-20T02:33:12.173Z,69.23
2022-08-20T02:35:41.226Z,69.21
2022-08-20T02:38:09.344Z,68.52
2022-08-20T02:40:37.687Z,68.70
2022-08-20T02:43:06.135Z,68.76
2022-08-20T02:45:37.572Z,68.90
2022-08-20T02:48:07.313Z,69.15
2022-08-20T02:50:35.480Z,68.71
2022-08-20T02:53:03.919Z,69.38
2022-08-20T02:55:32.013Z,69.15
2022-08-20T02:58:01.306Z,68.81
2022-08-20T03:00:37.783Z,69.43
2022-08-20T03:03:08.270Z,69.12
2022-08-20T03:05:36.455Z,69.22
2022-08-20T03:08:09.139Z,68.98
2022-08-20T03:10:38.654Z,68.78
2022-08-20T03:13:11.321Z,68.83
2022-08-20T03:15:40.775Z,69.01
2022-08-20T03:18:10.835Z,68.07
2022-08-20T03:20:39.279Z,68.44
2022-08-20T03:23:08.353Z,68.67
2022-08-20T03:25:36.576Z,68.26
2022-08-20T03:28:05.747Z,68.76
2022-08-20T03:30:34.092Z,68.45
2022-08-20T03:33:02.190Z,68.47
2022-08-20T03:35:33.416Z,68.63
2022-08-20T03:38:01.558Z,68.34
2022-08-20T03:40:32.159Z,68.45
2022-08-20T03:43:00.720Z,67.81
2022-08-20T03:45:30.583Z,68.88
2022-08-20T03:47:58.880Z,67.91
2022-08-20T03:50:30.228Z,68.39
2022-08-20T03:53:01.408Z,68.38
2022-08-20T03:55:31.022Z,67.49
2022-08-20T03:58:02.792Z,66.57
2022-08-20T04:00:33.646Z,67.09
2022-08-20T04:03:02.076Z,66.60
2022-08-20T04:05:31.500Z,66.55
2022-08-20T04:08:03.080Z,66.74
2022-08-20T04:10:31.983Z,65.88
2022-08-20T04:13:00.313Z,66.42
2022-08-20T04:15:30.022Z,66.63
2022-08-20T04:17:59.932Z,66.51
2022-08-20T04:20:28.370Z,66.19
2022-08-20T04:22:59.039Z,66.07
2022-08-20T04:25:30.084Z,65.62
2022-08-20T04:28:06.505Z,65.70
2022-08-20T04:30:34.942Z,65.88
2022-08-20T04:33:03.212Z,65.73
2022-08-20T04:35:32.617Z,65.76
2022-08-20T04:38:01.716Z,65.55
2022-08-20T04:40:45.679Z,65.74
2022-08-20T04:43:14.095Z,66.15
2022-08-20T04:45:43.715Z,65.84
2022-08-20T04:48:15.137Z,66.63
2022-08-20T04:50:46.828Z,66.51
2022-08-20T04:53:20.666Z,66.77
2022-08-20T04:55:53.621Z,65.42
2022-08-20T04:58:24.749Z,66.73
2022-08-20T05:01:01.202Z,66.29
2022-08-20T05:03:29.958Z,66.60
2022-08-20T05:05:59.044Z,66.91
2022-08-20T05:08:27.795Z,66.36
2022-08-20T05:11:06.749Z,66.28
2022-08-20T05:13:46.172Z,66.00
2022-08-20T05:16:16.264Z,66.82
2022-08-20T05:18:45.710Z,66.04
2022-08-20T05:21:21.053Z,65.28
2022-08-20T05:23:49.702Z,65.33
2022-08-20T05:26:20.372Z,65.21
2022-08-20T05:28:57.977Z,64.91
2022-08-20T05:31:31.224Z,65.24
2022-08-20T05:34:01.193Z,65.64
2022-08-20T05:36:29.513Z,65.81
2022-08-20T05:38:57.638Z,65.33
2022-08-20T05:41:30.173Z,66.45
2022-08-20T05:44:01.449Z,65.42
2022-08-20T05:46:31.758Z,64.44
2022-08-20T05:49:01.799Z,63.87
2022-08-20T05:51:30.859Z,64.13
2022-08-20T05:53:59.501Z,64.78
2022-08-20T05:56:31.274Z,64.70
2022-08-20T05:59:02.654Z,63.83
2022-08-20T06:01:31.108Z,64.16
2022-08-20T06:04:16.540Z,64.00
2022-08-20T06:06:47.161Z,64.41
2022-08-20T06:09:28.546Z,64.90
2022-08-20T06:12:02.788Z,65.36
2022-08-20T06:14:34.235Z,65.96
2022-08-20T06:17:06.764Z,66.24
2022-08-20T06:19:36.468Z,66.60
2022-08-20T06:22:17.792Z,66.44
2022-08-20T06:24:51.357Z,65.60
2022-08-20T06:27:21.372Z,66.18
2022-08-20T06:29:50.293Z,65.64
2022-08-20T06:32:19.943Z,65.13
2022-08-20T06:35:02.164Z,64.92
2022-08-20T06:37:32.332Z,65.42
2022-08-20T06:40:03.599Z,65.42
2022-08-20T06:42:33.463Z,65.97
2022-08-20T06:45:04.938Z,65.08
2022-08-20T06:47:33.733Z,65.73
2022-08-20T06:50:01.876Z,66.58
2022-08-20T06:52:51.561Z,66.93
2022-08-20T06:55:18.900Z,65.79
2022-08-20T06:57:50.286Z,66.41
2022-08-20T07:00:21.105Z,66.67
2022-08-20T07:02:51.395Z,67.14
2022-08-20T07:05:25.158Z,66.73
2022-08-20T07:07:56.448Z,66.25
2022-08-20T07:10:34.143Z,66.61
2022-08-20T07:13:11.799Z,65.91
2022-08-20T07:15:47.941Z,65.78
2022-08-20T07:18:28.237Z,65.93
2022-08-20T07:21:00.126Z,65.12
2022-08-20T07:23:31.500Z,64.72
2022-08-20T07:26:06.297Z,64.83
2022-08-20T07:28:36.767Z,64.69
2022-08-20T07:31:23.790Z,64.03
2022-08-20T07:33:53.419Z,64.44
2022-08-20T07:36:22.546Z,64.27
2022-08-20T07:38:52.732Z,64.00
2022-08-20T07:41:24.233Z,63.56
2022-08-20T07:43:54.770Z,63.98
2022-08-20T07:46:23.418Z,63.49
2022-08-20T07:48:57.485Z,64.77
2022-08-20T07:51:26.608Z,64.70
2022-08-20T07:53:58.293Z,63.73
2022-08-20T07:56:30.117Z,64.16
2022-08-20T07:59:01.577Z,63.50
2022-08-20T08:01:32.315Z,63.61
2022-08-20T08:04:01.195Z,62.96
2022-08-20T08:06:32.615Z,62.03
2022-08-20T08:09:04.812Z,62.72
2022-08-20T08:11:34.856Z,63.04
2022-08-20T08:14:07.020Z,61.94
2022-08-20T08:16:35.891Z,62.02
2022-08-20T08:19:06.679Z,61.22
2022-08-20T08:21:34.898Z,60.84
2022-08-20T08:24:03.295Z,59.75
2022-08-20T08:26:31.679Z,59.25
2022-08-20T08:28:59.893Z,59.04
2022-08-20T08:31:29.493Z,58.77
2022-08-20T08:33:57.769Z,59.06
2022-08-20T08:36:26.894Z,57.83
2022-08-20T08:38:56.696Z,57.69
2022-08-20T08:41:29.560Z,56.97
2022-08-20T08:44:03.503Z,57.47
2022-08-20T08:46:38.719Z,56.43
2022-08-20T08:49:06.914Z,56.21
2022-08-20T08:51:39.785Z,56.97
2022-08-20T08:54:09.065Z,57.07
2022-08-20T08:56:37.574Z,57.72
2022-08-20T08:59:07.784Z,57.66
2022-08-20T09:01:54.449Z,56.83
2022-08-20T09:04:31.755Z,56.65
2022-08-20T09:07:00.790Z,57.26
2022-08-20T09:09:30.605Z,57.44
2022-08-20T09:12:04.915Z,57.77
2022-08-20T09:14:33.186Z,58.58
2022-08-20T09:17:02.994Z,58.08
2022-08-20T09:19:31.183Z,58.19
2022-08-20T09:21:59.299Z,57.52
2022-08-20T09:24:28.902Z,57.45
2022-08-20T09:26:56.979Z,58.16
2022-08-20T09:29:25.103Z,57.24
2022-08-20T09:32:06.561Z,57.65
2022-08-20T09:34:37.159Z,57.60
2022-08-20T09:37:05.641Z,57.27
2022-08-20T09:39:34.002Z,57.50
2022-08-20T09:42:08.682Z,56.96
2022-08-20T09:44:37.290Z,56.92
2022-08-20T09:47:07.413Z,56.58
2022-08-20T09:49:37.349Z,55.52
2022-08-20T09:52:08.704Z,56.09
2022-08-20T09:54:37.935Z,56.17
2022-08-20T09:57:07.845Z,56.24
2022-08-20T09:59:37.598Z,56.37
2022-08-20T10:02:07.180Z,55.26
2022-08-20T10:07:03.333Z,55.34
2022-08-20T10:09:31.521Z,54.97
2022-08-20T10:11:59.754Z,55.27
2022-08-20T10:14:27.935Z,55.60
2022-08-20T10:16:59.895Z,55.38
2022-08-20T10:19:31.334Z,55.26
2022-08-20T10:21:59.588Z,54.50
2022-08-20T10:24:28.536Z,53.67
2022-08-20T10:26:57.696Z,52.49
2022-08-20T10:29:25.971Z,53.48
2022-08-20T10:31:55.034Z,53.43
2022-08-20T10:34:23.226Z,54.13
2022-08-20T10:36:53.120Z,53.89
2022-08-20T10:39:21.540Z,54.03
2022-08-20T10:41:50.739Z,53.61
2022-08-20T10:44:18.893Z,53.42
2022-08-20T10:46:47.119Z,53.41
2022-08-20T10:49:15.312Z,52.74
2022-08-20T10:51:43.499Z,53.71
2022-08-20T10:54:12.998Z,52.91
2022-08-20T10:56:41.345Z,52.76
2022-08-20T10:59:09.606Z,53.60
2022-08-20T11:01:37.867Z,53.83
2022-08-20T11:04:06.227Z,53.56
2022-08-20T11:06:34.448Z,53.33
2022-08-20T11:09:02.643Z,53.40
2022-08-20T11:11:32.184Z,53.24
2022-08-20T11:14:00.341Z,53.20
2022-08-20T11:16:28.617Z,52.56
2022-08-20T11:18:56.812Z,53.25
2022-08-20T11:21:24.966Z,53.71
2022-08-20T11:23:53.175Z,53.66
2022-08-20T11:26:24.118Z,53.74
2022-08-20T11:28:53.651Z,54.73
2022-08-20T11:31:21.720Z,55.38
2022-08-20T11:33:49.892Z,55.45
2022-08-20T11:36:18.019Z,55.14
2022-08-20T11:38:46.100Z,56.21
2022-08-20T11:41:14.546Z,56.61
2022-08-20T11:43:54.963Z,56.29
2022-08-20T11:46:32.978Z,56.32
2022-08-20T11:49:01.440Z,57.05
2022-08-20T11:51:29.726Z,57.98
2022-08-20T11:54:03.582Z,58.87
2022-08-20T11:56:32.323Z,59.11
2022-08-20T11:59:00.472Z,58.56
2022-08-20T12:01:28.695Z,58.50
2022-08-20T12:03:58.214Z,59.14
2022-08-20T12:06:26.429Z,58.65
2022-08-20T12:08:54.632Z,58.93
2022-08-20T12:11:22.760Z,59.27
2022-08-20T12:13:50.917Z,59.03
2022-08-20T12:16:19.718Z,59.41
2022-08-20T12:18:48.543Z,58.80
2022-08-20T12:21:18.256Z,59.61
2022-08-20T12:23:46.908Z,60.10
2022-08-20T12:26:16.766Z,59.40
2022-08-20T12:28:45.023Z,60.29
2022-08-20T12:31:13.558Z,61.21
2022-08-20T12:33:41.750Z,61.71
2022-08-20T12:36:11.038Z,61.97
2022-08-20T12:38:40.817Z,61.93
2022-08-20T12:41:09.043Z,61.50
2022-08-20T12:43:37.218Z,61.71
2022-08-20T12:46:05.481Z,62.10
2022-08-20T12:48:33.777Z,61.84
2022-08-20T12:51:01.885Z,61.61
2022-08-20T12:53:30.202Z,62.07
2022-08-20T12:56:02.576Z,61.11
2022-08-20T12:58:30.798Z,60.70
2022-08-20T13:00:59.014Z,61.33
2022-08-20T13:03:32.253Z,61.75
2022-08-20T13:06:02.278Z,61.85
2022-08-20T13:08:30.489Z,61.76
2022-08-20T13:11:02.833Z,62.87
2022-08-20T13:13:31.078Z,63.37
2022-08-20T13:15:59.254Z,62.68
2022-08-20T13:18:28.152Z,63.33
2022-08-20T13:20:56.357Z,62.85
2022-08-20T13:23:24.463Z,63.04
2022-08-20T13:25:52.829Z,62.94
2022-08-20T13:28:22.350Z,62.54
2022-08-20T13:30:50.649Z,62.36
2022-08-20T13:33:20.093Z,63.05
2022-08-20T13:35:50.752Z,62.10
2022-08-20T13:38:18.972Z,63.00
2022-08-20T13:40:48.953Z,62.43
2022-08-20T13:43:18.742Z,62.52
2022-08-20T13:45:48.539Z,62.76
2022-08-20T13:48:16.796Z,62.68
2022-08-20T13:50:47.378Z,62.73
2022-08-20T13:53:16.654Z,63.12
2022-08-20T13:55:45.577Z,63.24
2022-08-20T13:58:13.812Z,63.22
2022-08-20T14:00:42.024Z,62.11
2022-08-20T14:03:12.153Z,62.67
2022-08-20T14:05:42.406Z,63.43
2022-08-20T14:08:12.956Z,62.89
2022-08-20T14:10:42.579Z,63.35
2022-08-20T14:13:15.312Z,63.19
2022-08-20T14:15:44.244Z,63.75
2022-08-20T14:18:14.531Z,63.68
2022-08-20T14:20:45.804Z,64.42
2022-08-20T14:23:14.706Z,64.71
2022-08-20T14:25:43.102Z,64.98
2022-08-20T14:28:12.700Z,65.15
2022-08-20T14:30:41.365Z,64.51
2022-08-20T14:33:09.613Z,64.67
2022-08-20T14:35:39.487Z,64.84
2022-08-20T14:38:08.464Z,64.19
2022-08-20T14:40:37.211Z,64.41
2022-08-20T14:43:05.347Z,64.55
2022-08-20T14:45:33.670Z,64.98
2022-08-20T14:48:02.020Z,64.98
2022-08-20T14:50:32.828Z,65.27
2022-08-20T14:53:02.824Z,65.16
2022-08-20T14:55:33.330Z,64.86
2022-08-20T14:58:01.539Z,65.08
2022-08-20T15:00:33.921Z,64.93
2022-08-20T15:03:02.078Z,65.51
2022-08-20T15:05:30.471Z,65.23
2022-08-20T15:07:59.491Z,65.29
2022-08-20T15:10:32.540Z,66.38
2022-08-20T15:13:01.301Z,66.64
2022-08-20T15:15:30.044Z,66.51
2022-08-20T15:18:01.031Z,67.30
2022-08-20T15:20:31.849Z,67.66
2022-08-20T15:23:00.266Z,67.28
2022-08-20T15:25:36.573Z,68.03
2022-08-20T15:28:06.771Z,67.70
2022-08-20T15:30:35.325Z,68.11
2022-08-20T15:33:03.625Z,68.09
2022-08-20T15:35:31.913Z,67.78
2022-08-20T15:38:00.697Z,68.67
2022-08-20T15:40:31.899Z,68.81
2022-08-20T15:43:01.799Z,69.34
2022-08-20T15:45:30.403Z,69.44
2022-08-20T15:48:04.797Z,69.43
2022-08-20T15:50:49.561Z,69.20
2022-08-20T15:53:23.181Z,70.37
2022-08-20T15:55:59.209Z,70.18
2022-08-20T15:58:34.311Z,70.49
2022-08-20T16:01:24.217Z,70.40
2022-08-20T16:04:20.139Z,69.33
2022-08-20T16:06:48.831Z,69.98
2022-08-20T16:09:32.955Z,70.34
2022-08-20T16:12:09.076Z,69.18
2022-08-20T16:14:40.030Z,68.96
2022-08-20T16:17:12.665Z,70.64
2022-08-20T16:19:49.732Z,69.09
2022-08-20T16:22:19.978Z,69.23
2022-08-20T16:24:52.608Z,69.29
2022-08-20T16:27:33.546Z,67.92
2022-08-20T16:30:05.788Z,68.28
2022-08-20T16:32:53.926Z,68.83
2022-08-20T16:35:30.326Z,68.80
2022-08-20T16:38:09.243Z,69.45
2022-08-20T16:40:44.203Z,70.71
2022-08-20T16:43:27.945Z,69.48
2022-08-20T16:46:02.810Z,69.38
2022-08-20T16:48:35.572Z,70.31
2022-08-20T16:51:09.751Z,70.38
2022-08-20T16:53:40.491Z,70.28
2022-08-20T16:56:11.154Z,70.09
2022-08-20T16:58:45.687Z,69.79
2022-08-20T17:01:15.903Z,70.09
2022-08-20T17:03:50.692Z,70.53
2022-08-20T17:06:26.262Z,69.42
2022-08-20T17:08:55.101Z,70.96
2022-08-20T17:11:26.504Z,71.07
2022-08-20T17:14:07.287Z,71.42
2022-08-20T17:16:37.115Z,71.06
2022-08-20T17:19:11.451Z,71.10
2022-08-20T17:21:40.065Z,70.96
2022-08-20T17:24:16.980Z,71.40
2022-08-20T17:26:47.074Z,70.98
2022-08-20T17:29:19.218Z,71.96
2022-08-20T17:31:50.409Z,70.81
2022-08-20T17:34:22.408Z,71.32
2022-08-20T17:36:56.269Z,69.73
2022-08-20T17:39:26.395Z,70.07
2022-08-20T17:41:58.462Z,70.22
2022-08-20T17:44:30.264Z,69.19
2022-08-20T17:47:00.307Z,68.80
2022-08-20T17:49:35.733Z,68.38
2022-08-20T17:52:07.608Z,67.63
2022-08-20T17:54:38.311Z,66.68
2022-08-20T17:57:09.107Z,66.91
2022-08-20T17:59:59.702Z,67.25
2022-08-20T18:02:29.642Z,66.55
2022-08-20T18:04:58.016Z,66.71
2022-08-20T18:07:28.469Z,66.35
2022-08-20T18:09:59.840Z,65.87
2022-08-20T18:12:34.979Z,65.70
2022-08-20T18:15:09.949Z,66.13
2022-08-20T18:18:03.235Z,66.44
2022-08-20T18:20:47.872Z,66.18
2022-08-20T18:23:19.534Z,65.93
2022-08-20T18:25:51.705Z,65.83
2022-08-20T18:28:23.206Z,65.85
2022-08-20T18:30:57.155Z,66.29
2022-08-20T18:33:30.490Z,65.61
2022-08-20T18:36:14.503Z,65.80
2022-08-20T18:38:43.582Z,66.37
2022-08-20T18:41:27.680Z,66.04
2022-08-20T18:44:06.572Z,65.75
2022-08-20T18:46:36.522Z,66.05
2022-08-20T18:49:07.170Z,67.23
2022-08-20T18:51:44.100Z,66.54
2022-08-20T18:54:23.745Z,65.85
2022-08-20T18:57:04.764Z,66.73
2022-08-20T18:59:35.047Z,66.90
2022-08-20T19:02:15.737Z,67.25
2022-08-20T19:04:44.834Z,66.77
2022-08-20T19:07:20.696Z,66.07
2022-08-20T19:10:27.778Z,66.60
2022-08-20T19:13:20.215Z,65.89
2022-08-20T19:15:51.571Z,66.64
2022-08-20T19:18:25.490Z,66.27
2022-08-20T19:20:57.462Z,66.29
2022-08-20T19:23:28.507Z,66.30
2022-08-20T19:25:58.963Z,66.16
2022-08-20T19:28:29.499Z,67.01
2022-08-20T19:31:10.528Z,66.99
2022-08-20T19:33:44.226Z,67.13
2022-08-20T19:36:14.764Z,67.42
2022-08-20T19:38:47.022Z,67.82
2022-08-20T19:57:28.773Z,69.34
2022-08-20T20:20:15.954Z,70.80
2022-08-20T20:22:50.907Z,70.44
2022-08-20T20:25:21.323Z,69.86
2022-08-20T20:27:50.761Z,69.14
2022-08-20T20:30:24.073Z,70.10
2022-08-20T20:32:52.363Z,69.74
2022-08-20T20:35:29.840Z,70.15
2022-08-20T20:38:02.126Z,70.43
2022-08-20T20:40:33.327Z,71.08
2022-08-20T20:43:06.431Z,71.10
2022-08-20T20:45:37.329Z,72.14
2022-08-20T20:48:18.590Z,74.29
2022-08-20T20:50:49.064Z,75.84
2022-08-20T20:53:32.305Z,77.30
2022-08-20T20:56:31.740Z,76.95
2022-08-20T20:59:05.302Z,76.90
2022-08-20T21:01:46.193Z,78.19
2022-08-20T21:04:16.742Z,77.04
2022-08-20T21:06:46.390Z,77.83
2022-08-20T21:09:14.663Z,77.68
2022-08-20T21:11:42.919Z,77.58
2022-08-20T21:14:11.102Z,78.24
2022-08-20T21:16:39.192Z,77.05
2022-08-20T21:19:09.972Z,78.11
2022-08-20T21:21:38.292Z,78.78
2022-08-20T21:24:08.549Z,79.58
2022-08-20T21:26:37.405Z,79.39
2022-08-20T21:29:06.008Z,79.93
2022-08-20T21:31:37.340Z,79.92
2022-08-20T21:34:06.739Z,79.65
2022-08-20T21:36:34.892Z,81.27
2022-08-20T21:39:03.017Z,82.96
2022-08-20T21:41:32.957Z,82.64
2022-08-20T21:44:02.400Z,83.30
2022-08-20T21:46:32.517Z,83.04
2022-08-20T21:49:00.574Z,83.62
2022-08-20T21:51:30.749Z,85.71
2022-08-20T21:54:01.193Z,85.36
2022-08-20T21:56:29.481Z,86.48
2022-08-20T21:59:04.015Z,87.13
2022-08-20T22:01:32.707Z,86.93
2022-08-20T22:04:00.941Z,87.59
2022-08-20T22:06:29.292Z,87.43
2022-08-20T22:08:57.399Z,88.64
2022-08-20T22:11:25.574Z,87.08
2022-08-20T22:13:54.266Z,88.05
2022-08-20T22:16:24.349Z,88.20
2022-08-20T22:18:53.630Z,87.74
2022-08-20T22:21:24.376Z,87.21
2022-08-20T22:23:53.966Z,88.70
2022-08-20T22:26:22.717Z,89.22
2022-08-20T22:28:55.688Z,87.93
2022-08-20T22:31:27.923Z,88.34
2022-08-20T22:33:56.546Z,88.24
2022-08-20T22:36:25.182Z,89.06
2022-08-20T22:38:55.005Z,88.50
2022-08-20T22:41:24.009Z,88.03
2022-08-20T22:43:56.721Z,88.27
2022-08-20T22:46:28.352Z,88.47
2022-08-20T22:48:57.362Z,88.28
2022-08-20T22:51:30.170Z,88.18
2022-08-20T22:53:59.256Z,87.63
2022-08-20T22:56:27.408Z,86.79
2022-08-20T22:58:59.573Z,87.38
2022-08-20T23:01:29.472Z,87.03
2022-08-20T23:03:58.801Z,87.22
2022-08-20T23:06:27.920Z,87.34
2022-08-20T23:08:56.279Z,85.58
2022-08-20T23:11:24.447Z,86.13
2022-08-20T23:13:52.616Z,86.22
2022-08-20T23:16:20.754Z,85.59
2022-08-20T23:18:50.254Z,85.85
2022-08-20T23:21:18.861Z,86.89
2022-08-20T23:23:47.052Z,86.13
2022-08-20T23:26:18.868Z,85.69
2022-08-20T23:28:47.018Z,86.83
2022-08-20T23:31:17.860Z,87.16
2022-08-20T23:33:45.963Z,87.76
2022-08-20T23:36:17.032Z,86.75
2022-08-20T23:38:45.178Z,87.96
2022-08-20T23:41:13.382Z,87.98
2022-08-20T23:44:01.482Z,87.85
2022-08-20T23:46:31.050Z,87.59
2022-08-20T23:48:59.100Z,88.12
2022-08-20T23:51:28.688Z,86.88
2022-08-20T23:53:57.014Z,87.84
2022-08-20T23:56:25.196Z,88.39
2022-08-20T23:58:56.051Z,87.88
